Accueil
METAR-TAF:

METAR-TAF

Aéroports :

Harding County Airport

Buffalo, Dakota du Sud, États-Unis

latitude: 45-36-16N, longitude: 103-32-47W, altitude: 915 m

Observation

Le bulletin a été fait il y a 58 minutes, à 21:56 UTC
Vent 18 kt de nord/nord-ouest avec des rafales jusqu'à 25 kt
Température -1°C
Humidité 86%
Pression 1014 hPa

METAR: K2WX 202156Z AUTO 34018G25KT M01/M03 A2995 RMK AO1 PK WND 33029/2139 SLP174 T10111028

Heure: 15:54 (22:54 UTC)


TAF: absent

Observations et prévisions météorologiques de plus de 4000 aéroports (messages METAR et TAF).

Les stations disponibles sont représentées par des disques jaunes et rouges sur la carte.

Passer la souris dessus pour voir le nom de la station.

Cliquer dessus pour voir les observations et prévisions météorologiques.

Pour changer de carte: cliquez sur les boutons verts avec une croix noire pour zoomer, sur le bouton vert avec un tiret pour effectuer un zoom arrière, ou sur les flèches vertes pour les cartes adjacentes.


METAR-TAF: